United States > Florida

Lake Worth, FL (33460)

4:09 AM EDT on July 07, 2015 (GMT -0400)
NOS_NWLON | | Change Station
CLOSE
Current Station
Personal Weather Station
Location: Lake Worth, FL
Elevation: 0 ft
Nearby Weather Stations

Elev 0 ft 26.61 °N, 80.03 °W | Updated 33 minutes ago

Scattered Clouds
Scattered Clouds
0.0 °F
Feels Like -15 °F
N
9.0
Wind Variable Wind from ESE
Gusts 12.0 mph

Today
High -- | Low -- °F
--% Chance of Precip.
Yesterday
High -- | Low -- °F
Precip. -- in
6:32 AM 8:17 PM
Waning Gibbous, 67% visible
Pressure 30.11 in
Visibility 10.0 miles
Clouds Scattered Clouds 2300 ft
Windchill -15 °F
Dew Point Not available.
Humidity Not available.
Rainfall in
Snow Depth Not available.
UV 0 out of 12
Pollen 4.60 out of 12
Air Quality Not available.
Flu Activity Not available.
METAR KPBI 070753Z 13004KT 10SM SCT023 27/23 A3011 RMK AO2 SLP195 T02720233 $

More Conditions Fewer Conditions

Pressure 30.11 in
Visibility 10.0 miles
Clouds Scattered Clouds 2300 ft
Windchill -15 °F
Dew Point Not available.
Humidity Not available.
Rainfall in
Snow Depth Not available.
UV 0 out of 12
Pollen 4.60 out of 12
Air Quality Not available.
Flu Activity Not available.
METAR KPBI 070753Z 13004KT 10SM SCT023 27/23 A3011 RMK AO2 SLP195 T02720233 $

More Conditions Fewer Conditions

10-Day Weather Forecast

×

Almanac

Astronomy

Jul. 07, 2015 Rise Set
Actual Time
Civil Twilight
Nautical Twilight
Astronomical Twilight
Moon
Length of Visible Light
Length of Day
Tomorrow will be .
, % of the Moon is Illuminated

Today's Extremes

State Highs State Lows

Community

WunderPhotos

Upload Photos

1,835,756 photos uploaded!

WunderBlogs® & News

Nearby

Air Quality

  Air Quality AQ Index Pollutant
Not available.

Snow Depth

Station Depth Elevation

Earthquake Activity

City Distance Mag. Time & Date
Minimum magnitude displayed is 2.5.

Coastal Water Temperatures

Place Temperature

Stations

Nearby Weather Stations

Station Location Temp. Windchill Dew Point Humidity Wind Precip. Elev Updated Type